Time;durP1;ratioP1;P1;durP2;ratioP2;P2;SDS_P1;SDS_P2;PMS_P1;PMS_P2;Temp;Humidity;BMP_temperature;BMP_pressure;BME280_temperature;BME280_humidity;BME280_pressure;Samples;Min_cycle;Max_cycle;Signal;HPM_P1;HPM_P2
2023/12/18 00:02:22;;;;;;;18.30;13.10;;;;;;;;;;5075861;28;20769;-73
2023/12/18 00:04:48;;;;;;;14.48;11.98;;;;;;;;;;5084792;28;20219;-73
2023/12/18 00:07:15;;;;;;;13.63;11.30;;;;;;;;;;5079533;28;20205;-73
2023/12/18 00:09:42;;;;;;;16.88;13.00;;;;;;;;;;5085620;28;20210;-73
2023/12/18 00:12:08;;;;;;;21.23;12.05;;;;;;;;;;5082224;28;20203;-73
2023/12/18 00:14:34;;;;;;;14.30;11.85;;;;;;;;;;5081531;28;20273;-73
2023/12/18 00:17:01;;;;;;;17.13;11.55;;;;;;;;;;5081527;28;20193;-73
2023/12/18 00:19:28;;;;;;;13.32;11.32;;;;;;;;;;5085060;28;20196;-73
2023/12/18 00:21:54;;;;;;;14.77;11.85;;;;;;;;;;5087168;28;20202;-73
2023/12/18 00:24:21;;;;;;;14.52;12.60;;;;;;;;;;5085051;28;20694;-73
2023/12/18 00:26:47;;;;;;;16.95;12.80;;;;;;;;;;5084631;28;20227;-73
2023/12/18 00:29:13;;;;;;;14.07;11.70;;;;;;;;;;5081236;28;20204;-73
2023/12/18 00:31:39;;;;;;;14.10;12.02;;;;;;;;;;5087455;28;20195;-73
2023/12/18 00:34:06;;;;;;;14.13;12.43;;;;;;;;;;5084158;28;20200;-73
2023/12/18 00:36:33;;;;;;;17.15;12.82;;;;;;;;;;5087334;28;20224;-73
2023/12/18 00:38:59;;;;;;;15.60;12.63;;;;;;;;;;5089283;28;20214;-73
2023/12/18 00:41:26;;;;;;;15.75;13.15;;;;;;;;;;5085609;28;20199;-73
2023/12/18 00:43:52;;;;;;;18.05;13.38;;;;;;;;;;5083825;28;20234;-73
2023/12/18 00:46:18;;;;;;;21.27;14.00;;;;;;;;;;5081076;28;20224;-73
2023/12/18 00:48:44;;;;;;;15.93;13.43;;;;;;;;;;5079358;28;20688;-73
2023/12/18 00:51:11;;;;;;;17.10;12.80;;;;;;;;;;5084335;28;20200;-73
2023/12/18 00:53:39;;;;;;;18.40;13.75;;;;;;;;;;5086311;28;20243;-73
2023/12/18 00:56:05;;;;;;;16.27;13.98;;;;;;;;;;5088861;28;20235;-73
2023/12/18 00:58:32;;;;;;;17.58;13.98;;;;;;;;;;5085684;28;20199;-73
2023/12/18 01:00:58;;;;;;;22.80;14.65;;;;;;;;;;5084049;28;20196;-73
2023/12/18 01:03:25;;;;;;;23.38;14.60;;;;;;;;;;5083983;28;20664;-73
2023/12/18 01:05:51;;;;;;;19.13;14.20;;;;;;;;;;5084421;28;20216;-73
2023/12/18 01:08:17;;;;;;;19.15;14.52;;;;;;;;;;5083403;28;20207;-73
2023/12/18 01:10:45;;;;;;;17.90;13.70;;;;;;;;;;5085497;28;20204;-73
2023/12/18 01:13:11;;;;;;;19.30;13.50;;;;;;;;;;5088596;28;20200;-73
2023/12/18 01:15:37;;;;;;;19.70;12.90;;;;;;;;;;5086120;28;20219;-73
2023/12/18 01:18:04;;;;;;;20.15;14.07;;;;;;;;;;5083699;28;20238;-73
2023/12/18 01:23:14;;;;;;;16.92;13.20;;;;;;;;;;5082435;28;20703;-73
2023/12/18 01:25:40;;;;;;;17.30;13.80;;;;;;;;;;5086008;28;20303;-73
2023/12/18 01:28:08;;;;;;;20.73;14.80;;;;;;;;;;5091770;28;20207;-73
2023/12/18 01:30:34;;;;;;;18.60;13.85;;;;;;;;;;5091949;28;20652;-73
2023/12/18 01:33:00;;;;;;;21.38;13.73;;;;;;;;;;5083691;28;20250;-73
2023/12/18 01:35:26;;;;;;;21.15;14.45;;;;;;;;;;5093811;28;20215;-73
2023/12/18 01:37:53;;;;;;;22.60;14.43;;;;;;;;;;5086083;28;20261;-73
2023/12/18 01:40:19;;;;;;;22.45;14.73;;;;;;;;;;5093576;28;20212;-73
2023/12/18 01:42:45;;;;;;;22.77;15.25;;;;;;;;;;5103844;28;20212;-73
2023/12/18 01:45:13;;;;;;;24.35;15.65;;;;;;;;;;5106294;28;20223;-73
2023/12/18 01:47:40;;;;;;;25.38;16.55;;;;;;;;;;5103952;28;20192;-73
2023/12/18 01:50:07;;;;;;;22.35;15.52;;;;;;;;;;5101946;28;20200;-73
2023/12/18 01:52:33;;;;;;;19.23;14.30;;;;;;;;;;5102278;28;20196;-72
2023/12/18 01:55:00;;;;;;;19.73;14.45;;;;;;;;;;5085644;28;20274;-73
2023/12/18 01:57:27;;;;;;;21.42;15.80;;;;;;;;;;5080800;28;20207;-73
2023/12/18 01:59:53;;;;;;;22.65;15.57;;;;;;;;;;5088074;28;20204;-73
2023/12/18 02:02:21;;;;;;;19.60;15.32;;;;;;;;;;5084141;28;20208;-73
2023/12/18 02:04:47;;;;;;;19.67;15.70;;;;;;;;;;5084405;28;20273;-73
2023/12/18 02:07:13;;;;;;;21.27;15.27;;;;;;;;;;5094513;28;20211;-73
2023/12/18 02:09:41;;;;;;;17.63;14.80;;;;;;;;;;5086812;28;20196;-73
2023/12/18 02:12:07;;;;;;;19.52;13.93;;;;;;;;;;5089237;28;20253;-73
2023/12/18 02:14:34;;;;;;;20.00;15.15;;;;;;;;;;5092072;28;20200;-73
2023/12/18 02:17:00;;;;;;;17.55;14.45;;;;;;;;;;5083076;28;20202;-73
2023/12/18 02:19:29;;;;;;;16.50;13.43;;;;;;;;;;5082784;28;20659;-73
2023/12/18 02:21:55;;;;;;;18.83;14.50;;;;;;;;;;5091554;28;20200;-73
2023/12/18 02:24:23;;;;;;;19.15;14.30;;;;;;;;;;5083006;28;20567;-73
2023/12/18 02:26:49;;;;;;;18.52;14.15;;;;;;;;;;5082946;28;20630;-73
2023/12/18 02:29:16;;;;;;;18.45;13.68;;;;;;;;;;5082794;28;20204;-73
2023/12/18 02:31:42;;;;;;;16.92;13.85;;;;;;;;;;5082831;28;20601;-73
2023/12/18 02:34:09;;;;;;;20.13;14.38;;;;;;;;;;5082549;28;20218;-73
2023/12/18 02:36:35;;;;;;;18.95;13.73;;;;;;;;;;5083883;28;20264;-73
2023/12/18 02:39:01;;;;;;;22.20;14.00;;;;;;;;;;5083245;28;20527;-73
2023/12/18 02:41:29;;;;;;;16.15;12.95;;;;;;;;;;5080046;28;20201;-73
2023/12/18 02:43:56;;;;;;;18.85;13.55;;;;;;;;;;5079577;28;20224;-74
2023/12/18 02:46:22;;;;;;;18.15;13.88;;;;;;;;;;5085496;28;20718;-74
2023/12/18 02:48:48;;;;;;;15.88;13.50;;;;;;;;;;5080719;28;20238;-73
2023/12/18 02:51:15;;;;;;;18.20;14.05;;;;;;;;;;5091169;28;20204;-73
2023/12/18 02:53:41;;;;;;;18.48;14.18;;;;;;;;;;5087931;28;20645;-73
2023/12/18 02:56:07;;;;;;;17.80;13.55;;;;;;;;;;5086062;28;20740;-73
2023/12/18 02:58:35;;;;;;;19.33;14.77;;;;;;;;;;5086597;28;20203;-73
2023/12/18 03:01:01;;;;;;;18.55;14.30;;;;;;;;;;5087089;28;20208;-73
2023/12/18 03:03:28;;;;;;;21.15;15.90;;;;;;;;;;5082736;28;20220;-73
2023/12/18 03:05:54;;;;;;;19.48;14.52;;;;;;;;;;5089527;28;20936;-73
2023/12/18 03:08:20;;;;;;;23.33;15.32;;;;;;;;;;5086420;28;20200;-73
2023/12/18 03:10:47;;;;;;;20.30;15.75;;;;;;;;;;5086359;28;20196;-73
2023/12/18 03:13:13;;;;;;;20.35;15.15;;;;;;;;;;5085990;28;20204;-73
2023/12/18 03:15:41;;;;;;;19.98;15.02;;;;;;;;;;5089903;28;20225;-73
2023/12/18 03:18:07;;;;;;;20.88;14.75;;;;;;;;;;5090595;28;20199;-73
2023/12/18 03:20:33;;;;;;;20.70;15.18;;;;;;;;;;5082450;28;20192;-73
2023/12/18 03:22:59;;;;;;;21.23;15.55;;;;;;;;;;5089265;28;20196;-74
2023/12/18 03:25:25;;;;;;;17.00;14.00;;;;;;;;;;5090653;28;20215;-73
2023/12/18 03:27:52;;;;;;;23.75;15.25;;;;;;;;;;5092506;28;20203;-73
2023/12/18 03:30:18;;;;;;;20.15;15.65;;;;;;;;;;5091868;28;20197;-73
2023/12/18 03:32:46;;;;;;;20.45;15.23;;;;;;;;;;5100108;28;20203;-73
2023/12/18 03:35:12;;;;;;;18.48;14.98;;;;;;;;;;5088784;28;20223;-73
2023/12/18 03:37:38;;;;;;;23.75;15.90;;;;;;;;;;5085872;28;20200;-73
2023/12/18 03:40:05;;;;;;;19.83;15.38;;;;;;;;;;5086458;28;20250;-73
2023/12/18 03:42:31;;;;;;;18.88;14.88;;;;;;;;;;5090610;28;20201;-73
2023/12/18 03:44:58;;;;;;;20.10;15.32;;;;;;;;;;5088448;28;20212;-73
2023/12/18 03:47:24;;;;;;;18.15;13.82;;;;;;;;;;5076977;28;20204;-73
2023/12/18 03:49:51;;;;;;;20.42;13.55;;;;;;;;;;5088414;28;20192;-73
2023/12/18 03:52:18;;;;;;;17.55;14.05;;;;;;;;;;5090191;28;20249;-73
2023/12/18 03:54:44;;;;;;;17.80;13.70;;;;;;;;;;5086522;28;20241;-73
2023/12/18 03:57:10;;;;;;;23.05;14.52;;;;;;;;;;5084505;28;20247;-73
2023/12/18 03:59:36;;;;;;;18.98;14.45;;;;;;;;;;5081852;28;20207;-73
2023/12/18 04:02:03;;;;;;;18.65;14.02;;;;;;;;;;5088813;28;20253;-73
2023/12/18 04:04:29;;;;;;;18.23;13.82;;;;;;;;;;5085041;28;20220;-73
2023/12/18 04:06:57;;;;;;;17.73;13.77;;;;;;;;;;5085246;28;20209;-73
2023/12/18 04:09:23;;;;;;;18.80;13.52;;;;;;;;;;5084847;28;20208;-74
2023/12/18 04:11:49;;;;;;;19.77;15.80;;;;;;;;;;5088585;28;20196;-74
2023/12/18 04:14:16;;;;;;;18.83;15.27;;;;;;;;;;5089589;28;20308;-74
2023/12/18 04:16:42;;;;;;;22.73;15.52;;;;;;;;;;5085603;28;20272;-74
2023/12/18 04:19:08;;;;;;;20.08;15.00;;;;;;;;;;5084774;28;20199;-74
2023/12/18 04:21:34;;;;;;;18.55;14.70;;;;;;;;;;5084801;28;20215;-74
2023/12/18 04:24:02;;;;;;;18.30;14.50;;;;;;;;;;5086639;28;20212;-74
2023/12/18 04:26:28;;;;;;;18.55;14.88;;;;;;;;;;5089687;28;20272;-74
2023/12/18 04:28:55;;;;;;;21.27;14.60;;;;;;;;;;5081171;28;20234;-74
2023/12/18 04:31:21;;;;;;;20.45;14.60;;;;;;;;;;5089761;28;20204;-74
2023/12/18 04:33:47;;;;;;;17.00;14.00;;;;;;;;;;5085806;28;20191;-74
2023/12/18 04:36:13;;;;;;;17.23;13.57;;;;;;;;;;5084585;28;20269;-74
2023/12/18 04:38:42;;;;;;;19.52;15.05;;;;;;;;;;5075949;28;20680;-74
2023/12/18 04:41:16;;;;;;;18.55;13.57;;;;;;;;;;5084477;28;20195;-74
2023/12/18 04:43:43;;;;;;;21.65;14.73;;;;;;;;;;5080821;28;20345;-73
2023/12/18 04:46:09;;;;;;;20.23;14.20;;;;;;;;;;5088379;28;20224;-73
2023/12/18 04:48:35;;;;;;;17.05;13.45;;;;;;;;;;5084408;28;20204;-73
2023/12/18 04:51:02;;;;;;;18.13;14.02;;;;;;;;;;5086222;28;20226;-73
2023/12/18 04:53:28;;;;;;;18.95;14.35;;;;;;;;;;5088843;28;20249;-73
2023/12/18 04:55:55;;;;;;;18.88;14.32;;;;;;;;;;5085984;28;20557;-73
2023/12/18 04:58:22;;;;;;;17.13;13.02;;;;;;;;;;5084009;28;20238;-73
2023/12/18 05:00:48;;;;;;;18.23;13.85;;;;;;;;;;5084222;28;20204;-73
2023/12/18 05:03:15;;;;;;;17.52;14.13;;;;;;;;;;5084293;28;20237;-73
2023/12/18 05:05:41;;;;;;;17.83;12.98;;;;;;;;;;5083647;28;20224;-73
2023/12/18 05:08:07;;;;;;;17.20;13.35;;;;;;;;;;5085240;28;20211;-73
2023/12/18 05:10:33;;;;;;;16.40;13.27;;;;;;;;;;5088662;28;20713;-73
2023/12/18 05:13:00;;;;;;;17.45;13.07;;;;;;;;;;5086102;28;20676;-73
2023/12/18 05:15:27;;;;;;;18.33;13.25;;;;;;;;;;5083895;28;20303;-73
2023/12/18 05:17:54;;;;;;;19.35;13.88;;;;;;;;;;5083842;28;20692;-73
2023/12/18 05:20:20;;;;;;;17.55;13.52;;;;;;;;;;5083739;28;20287;-73
2023/12/18 05:22:46;;;;;;;16.92;12.25;;;;;;;;;;5088471;28;20197;-73
2023/12/18 05:25:12;;;;;;;16.75;11.73;;;;;;;;;;5087721;28;20274;-74
2023/12/18 05:27:39;;;;;;;18.92;12.90;;;;;;;;;;5080861;28;20203;-74
2023/12/18 05:30:06;;;;;;;16.80;12.73;;;;;;;;;;5086479;28;20208;-73
2023/12/18 05:32:33;;;;;;;15.57;12.30;;;;;;;;;;5083370;28;20204;-74
2023/12/18 05:34:59;;;;;;;15.93;13.27;;;;;;;;;;5083724;28;20208;-74
2023/12/18 05:37:26;;;;;;;18.98;13.20;;;;;;;;;;5083532;28;20204;-73
2023/12/18 05:39:52;;;;;;;17.15;12.88;;;;;;;;;;5087696;28;20197;-73
2023/12/18 05:42:19;;;;;;;20.05;13.05;;;;;;;;;;5079944;28;20196;-75
2023/12/18 05:44:45;;;;;;;17.75;13.48;;;;;;;;;;5088451;28;20258;-74
2023/12/18 05:47:11;;;;;;;18.13;13.50;;;;;;;;;;5087171;28;20199;-73
2023/12/18 05:49:39;;;;;;;17.73;13.27;;;;;;;;;;5075086;28;20253;-74
2023/12/18 05:52:05;;;;;;;19.92;13.00;;;;;;;;;;5091896;28;20208;-73
2023/12/18 05:54:32;;;;;;;15.95;12.60;;;;;;;;;;5083704;28;20199;-74
2023/12/18 05:56:58;;;;;;;17.80;13.50;;;;;;;;;;5083105;28;20603;-74
2023/12/18 05:59:24;;;;;;;17.60;13.18;;;;;;;;;;5091465;28;20335;-74
2023/12/18 06:01:50;;;;;;;19.30;13.35;;;;;;;;;;5083869;28;20615;-74
2023/12/18 06:04:17;;;;;;;20.33;13.13;;;;;;;;;;5083150;28;20642;-74
2023/12/18 06:06:44;;;;;;;18.98;13.65;;;;;;;;;;5083277;28;20228;-74
2023/12/18 06:09:10;;;;;;;19.42;13.48;;;;;;;;;;5085337;28;20208;-74
2023/12/18 06:11:37;;;;;;;16.88;13.20;;;;;;;;;;5088428;28;20211;-74
2023/12/18 06:14:03;;;;;;;16.55;12.48;;;;;;;;;;5085445;28;20192;-75
2023/12/18 06:16:29;;;;;;;14.25;11.85;;;;;;;;;;5083149;28;20276;-74
2023/12/18 06:18:55;;;;;;;17.20;12.20;;;;;;;;;;5083419;28;20672;-74
2023/12/18 06:21:22;;;;;;;17.40;13.02;;;;;;;;;;5087800;28;20200;-74
2023/12/18 06:23:49;;;;;;;21.15;14.38;;;;;;;;;;5086893;28;20199;-74
2023/12/18 06:26:16;;;;;;;17.45;12.85;;;;;;;;;;5088521;28;20228;-74
2023/12/18 06:28:42;;;;;;;18.23;13.15;;;;;;;;;;5092023;28;20261;-74
2023/12/18 06:31:08;;;;;;;18.10;13.25;;;;;;;;;;5089332;28;20233;-74
2023/12/18 06:33:34;;;;;;;20.17;13.43;;;;;;;;;;5086793;28;20203;-74
2023/12/18 06:36:01;;;;;;;20.33;14.55;;;;;;;;;;5086840;28;20211;-74
2023/12/18 06:38:27;;;;;;;20.08;13.43;;;;;;;;;;5086558;28;20253;-74
2023/12/18 06:40:55;;;;;;;19.70;13.82;;;;;;;;;;5091292;28;20692;-74
2023/12/18 06:43:21;;;;;;;17.80;13.07;;;;;;;;;;5090861;28;20663;-75
2023/12/18 06:45:47;;;;;;;16.15;13.23;;;;;;;;;;5086376;28;20769;-74
2023/12/18 06:48:14;;;;;;;14.82;12.60;;;;;;;;;;5086729;28;20581;-74
2023/12/18 06:50:40;;;;;;;20.70;13.02;;;;;;;;;;5085916;28;20624;-61
2023/12/18 06:53:06;;;;;;;18.55;13.82;;;;;;;;;;5088948;28;20742;-60
2023/12/18 06:55:34;;;;;;;17.98;13.50;;;;;;;;;;5090867;28;20224;-60
2023/12/18 06:58:01;;;;;;;19.48;12.48;;;;;;;;;;5087222;28;20195;-60
2023/12/18 07:00:29;;;;;;;14.63;12.48;;;;;;;;;;5086237;28;20204;-60
2023/12/18 07:02:55;;;;;;;16.67;12.50;;;;;;;;;;5090482;28;20235;-60
2023/12/18 07:05:23;;;;;;;16.90;12.05;;;;;;;;;;5089538;28;20219;-60
2023/12/18 07:07:49;;;;;;;19.55;12.77;;;;;;;;;;5086003;28;20207;-61
2023/12/18 07:10:15;;;;;;;16.30;13.23;;;;;;;;;;5085827;28;20199;-60
2023/12/18 07:12:42;;;;;;;20.00;13.93;;;;;;;;;;5085704;28;20205;-60
2023/12/18 07:15:10;;;;;;;18.42;12.43;;;;;;;;;;5088625;28;20220;-61
2023/12/18 07:17:36;;;;;;;18.33;13.40;;;;;;;;;;5090563;28;20313;-61
2023/12/18 07:20:02;;;;;;;19.60;12.70;;;;;;;;;;5086487;28;20191;-60
2023/12/18 07:22:28;;;;;;;17.00;13.57;;;;;;;;;;5085576;28;20200;-60
2023/12/18 07:24:55;;;;;;;20.88;12.90;;;;;;;;;;5085553;28;20219;-60
2023/12/18 07:27:21;;;;;;;21.90;12.70;;;;;;;;;;5086803;28;20200;-61
2023/12/18 07:29:47;;;;;;;28.05;13.40;;;;;;;;;;5090110;28;20249;-60
2023/12/18 07:32:15;;;;;;;21.48;11.75;;;;;;;;;;5087802;28;20684;-59
2023/12/18 07:34:42;;;;;;;18.55;12.57;;;;;;;;;;5085534;28;20195;-60
2023/12/18 07:37:08;;;;;;;18.23;11.40;;;;;;;;;;5085529;28;20200;-60
2023/12/18 07:39:34;;;;;;;16.75;12.18;;;;;;;;;;5085050;28;20249;-59
2023/12/18 07:42:01;;;;;;;20.90;13.52;;;;;;;;;;5089709;28;20249;-60
2023/12/18 07:44:27;;;;;;;22.30;13.55;;;;;;;;;;5089005;28;20216;-60
2023/12/18 07:46:53;;;;;;;17.08;11.90;;;;;;;;;;5085372;28;20672;-60
2023/12/18 07:49:22;;;;;;;20.35;13.07;;;;;;;;;;5084861;28;20686;-60
2023/12/18 07:51:48;;;;;;;19.05;13.13;;;;;;;;;;5085041;28;20200;-60
2023/12/18 07:54:15;;;;;;;18.00;13.23;;;;;;;;;;5087482;28;20257;-60
2023/12/18 07:56:41;;;;;;;18.88;13.48;;;;;;;;;;5089923;28;20216;-60
2023/12/18 07:59:08;;;;;;;18.08;13.32;;;;;;;;;;5086077;28;20196;-61
2023/12/18 08:01:34;;;;;;;22.95;12.95;;;;;;;;;;5084674;28;20287;-61
2023/12/18 08:04:01;;;;;;;23.83;13.77;;;;;;;;;;5084852;28;20200;-60
2023/12/18 08:06:28;;;;;;;18.60;13.52;;;;;;;;;;5085868;28;20217;-60
2023/12/18 08:08:55;;;;;;;23.13;14.05;;;;;;;;;;5089505;28;20196;-59
2023/12/18 08:11:21;;;;;;;18.40;12.70;;;;;;;;;;5087815;28;20252;-58
2023/12/18 08:13:48;;;;;;;18.10;13.18;;;;;;;;;;5084320;28;20249;-60
2023/12/18 08:16:14;;;;;;;20.80;12.38;;;;;;;;;;5084911;28;20242;-60
2023/12/18 08:18:42;;;;;;;20.35;12.75;;;;;;;;;;5084519;28;20238;-60
2023/12/18 08:21:11;;;;;;;17.05;13.10;;;;;;;;;;5088409;28;20201;-59
2023/12/18 08:23:39;;;;;;;20.83;13.82;;;;;;;;;;5089129;28;20204;-60
2023/12/18 08:26:05;;;;;;;19.30;13.77;;;;;;;;;;5084760;28;20227;-60
2023/12/18 08:28:32;;;;;;;18.45;14.02;;;;;;;;;;5084418;28;20200;-60
2023/12/18 08:30:58;;;;;;;19.67;14.23;;;;;;;;;;5083957;28;20195;-60
2023/12/18 08:33:24;;;;;;;16.25;12.63;;;;;;;;;;5086036;28;20233;-60
2023/12/18 08:35:50;;;;;;;15.43;13.52;;;;;;;;;;5088963;28;20641;-60
2023/12/18 08:38:17;;;;;;;19.52;13.00;;;;;;;;;;5086134;28;20647;-59
2023/12/18 08:40:45;;;;;;;22.23;13.38;;;;;;;;;;5083910;28;20688;-60
2023/12/18 08:43:11;;;;;;;22.40;13.48;;;;;;;;;;5083404;28;20204;-60
2023/12/18 08:45:38;;;;;;;19.08;13.00;;;;;;;;;;5083995;28;20228;-60
2023/12/18 08:48:04;;;;;;;19.00;12.50;;;;;;;;;;5088877;28;20192;-60
2023/12/18 08:50:31;;;;;;;20.77;13.82;;;;;;;;;;5087787;28;20249;-61
2023/12/18 08:52:57;;;;;;;22.92;13.88;;;;;;;;;;5083680;28;20196;-61
2023/12/18 08:55:23;;;;;;;21.15;13.70;;;;;;;;;;5083735;28;20215;-60
2023/12/18 08:57:51;;;;;;;20.95;13.38;;;;;;;;;;5083561;28;20200;-60
2023/12/18 09:00:17;;;;;;;23.52;13.88;;;;;;;;;;5086711;28;20707;-61
2023/12/18 09:02:43;;;;;;;24.00;12.95;;;;;;;;;;5088251;28;20618;-61
2023/12/18 09:05:10;;;;;;;19.48;13.65;;;;;;;;;;5084111;28;20696;-61
2023/12/18 09:07:36;;;;;;;19.60;13.25;;;;;;;;;;5083612;28;20723;-61
2023/12/18 09:10:02;;;;;;;21.73;13.30;;;;;;;;;;5083409;28;20200;-61
2023/12/18 09:12:28;;;;;;;23.95;13.10;;;;;;;;;;5085070;28;20196;-61
2023/12/18 09:14:56;;;;;;;18.73;12.98;;;;;;;;;;5088354;28;20220;-60
2023/12/18 09:17:22;;;;;;;19.25;13.07;;;;;;;;;;5085803;28;20253;-61
2023/12/18 09:19:48;;;;;;;23.35;14.35;;;;;;;;;;5083228;28;20204;-60
2023/12/18 09:22:15;;;;;;;30.77;16.95;;;;;;;;;;5083330;28;20199;-60
2023/12/18 09:24:41;;;;;;;21.42;13.13;;;;;;;;;;5083047;28;20641;-60
2023/12/18 09:27:08;;;;;;;20.00;11.98;;;;;;;;;;5079643;28;20669;-60
2023/12/18 09:29:34;;;;;;;19.50;12.23;;;;;;;;;;5087195;28;20229;-60
2023/12/18 09:32:03;;;;;;;18.52;11.82;;;;;;;;;;5083238;28;20249;-60
2023/12/18 09:34:29;;;;;;;20.27;12.35;;;;;;;;;;5085220;28;20235;-60
2023/12/18 09:36:55;;;;;;;20.60;12.73;;;;;;;;;;5087908;28;20735;-60
2023/12/18 09:39:22;;;;;;;19.55;11.88;;;;;;;;;;5084871;28;20687;-61
2023/12/18 09:41:48;;;;;;;26.30;13.40;;;;;;;;;;5082928;28;20725;-60
2023/12/18 09:44:14;;;;;;;18.42;12.75;;;;;;;;;;5082804;28;20204;-60
2023/12/18 09:46:40;;;;;;;17.58;12.55;;;;;;;;;;5082741;28;20216;-60
2023/12/18 09:49:08;;;;;;;19.17;12.50;;;;;;;;;;5081687;28;20581;-60
2023/12/18 09:51:35;;;;;;;21.20;13.00;;;;;;;;;;5083676;28;20283;-60
2023/12/18 09:54:02;;;;;;;19.85;12.73;;;;;;;;;;5087223;28;20660;-60
2023/12/18 09:56:29;;;;;;;20.50;12.23;;;;;;;;;;5088528;28;20277;-60
2023/12/18 09:58:55;;;;;;;22.50;11.60;;;;;;;;;;5085427;28;20199;-60
2023/12/18 10:01:22;;;;;;;17.40;11.88;;;;;;;;;;5085842;28;20307;-60
2023/12/18 10:03:48;;;;;;;15.93;11.73;;;;;;;;;;5086865;28;20222;-60
2023/12/18 10:06:16;;;;;;;19.27;11.45;;;;;;;;;;5091306;28;20212;-60
2023/12/18 10:08:42;;;;;;;12.48;10.23;;;;;;;;;;5091275;28;20206;-60
2023/12/18 10:11:22;;;;;;;15.80;10.50;;;;;;;;;;5083714;28;20196;-60
2023/12/18 10:13:49;;;;;;;12.38;9.38;;;;;;;;;;5083476;28;20203;-60
2023/12/18 10:16:16;;;;;;;12.52;8.68;;;;;;;;;;5091360;28;20212;-60
2023/12/18 10:18:42;;;;;;;11.23;9.10;;;;;;;;;;5090957;28;20660;-61
2023/12/18 10:21:11;;;;;;;12.13;9.25;;;;;;;;;;5084038;28;20199;-60
2023/12/18 10:23:39;;;;;;;17.30;10.07;;;;;;;;;;5090331;28;20203;-60
2023/12/18 10:26:05;;;;;;;13.43;8.70;;;;;;;;;;5086141;28;20687;-60
2023/12/18 10:28:31;;;;;;;10.00;8.85;;;;;;;;;;5086671;28;20612;-60
2023/12/18 10:30:58;;;;;;;10.45;8.57;;;;;;;;;;5086349;28;20723;-60
2023/12/18 10:33:25;;;;;;;11.82;9.38;;;;;;;;;;5089925;28;20193;-60
2023/12/18 10:35:53;;;;;;;11.05;8.30;;;;;;;;;;5091511;28;20277;-60
2023/12/18 10:38:21;;;;;;;12.13;8.95;;;;;;;;;;5087573;28;20207;-60
2023/12/18 10:40:50;;;;;;;19.90;9.52;;;;;;;;;;5086457;28;20196;-60
2023/12/18 10:43:21;;;;;;;14.30;8.63;;;;;;;;;;5083008;28;20625;-61
2023/12/18 10:45:48;;;;;;;11.55;8.63;;;;;;;;;;5082704;28;20224;-61
2023/12/18 10:48:14;;;;;;;9.15;8.02;;;;;;;;;;5086089;28;20226;-61
2023/12/18 10:50:41;;;;;;;13.05;8.82;;;;;;;;;;5094806;28;20207;-61
2023/12/18 10:53:10;;;;;;;12.10;8.52;;;;;;;;;;5086010;28;20203;-61
2023/12/18 10:55:37;;;;;;;11.85;8.95;;;;;;;;;;5086207;28;20212;-60
2023/12/18 10:58:05;;;;;;;12.23;8.82;;;;;;;;;;5086098;28;20197;-60
2023/12/18 11:00:32;;;;;;;50.55;12.13;;;;;;;;;;5089172;28;20196;-60
2023/12/18 11:02:59;;;;;;;155.85;16.25;;;;;;;;;;5090539;28;20199;-60
2023/12/18 11:05:25;;;;;;;11.85;8.50;;;;;;;;;;5086665;28;20672;-60
2023/12/18 11:07:52;;;;;;;15.45;9.05;;;;;;;;;;5086094;28;20287;-60
2023/12/18 11:10:18;;;;;;;12.90;8.85;;;;;;;;;;5082471;28;20207;-60
2023/12/18 11:12:45;;;;;;;9.48;8.57;;;;;;;;;;5089848;28;20301;-60
2023/12/18 11:15:20;;;;;;;12.93;9.15;;;;;;;;;;5085425;28;20269;-61
2023/12/18 11:17:52;;;;;;;13.13;8.23;;;;;;;;;;5086032;28;20249;-61
2023/12/18 11:20:21;;;;;;;11.48;7.97;;;;;;;;;;5082348;28;20279;-60
2023/12/18 11:22:48;;;;;;;10.27;8.43;;;;;;;;;;5089851;28;20253;-60
2023/12/18 11:25:17;;;;;;;9.98;8.57;;;;;;;;;;5085351;28;20699;-60
2023/12/18 11:27:43;;;;;;;8.57;7.78;;;;;;;;;;5085356;28;20257;-60
2023/12/18 11:30:24;;;;;;;9.57;8.10;;;;;;;;;;5085541;28;20205;-60
2023/12/18 11:32:50;;;;;;;18.67;8.27;;;;;;;;;;5086086;28;20601;-61
2023/12/18 11:35:21;;;;;;;9.15;8.05;;;;;;;;;;5090173;28;20697;-60
2023/12/18 11:37:48;;;;;;;9.65;7.97;;;;;;;;;;5082594;28;20258;-61
2023/12/18 11:40:32;;;;;;;14.43;8.05;;;;;;;;;;5090257;28;20202;-61
2023/12/18 11:42:58;;;;;;;10.55;8.88;;;;;;;;;;5082203;28;20192;-61
2023/12/18 11:45:26;;;;;;;11.57;7.90;;;;;;;;;;5089520;28;20224;-61
2023/12/18 11:47:53;;;;;;;9.70;8.25;;;;;;;;;;5089829;28;20253;-61
2023/12/18 11:50:20;;;;;;;14.30;8.75;;;;;;;;;;5085088;28;20200;-61
2023/12/18 11:52:48;;;;;;;11.93;9.77;;;;;;;;;;5086393;28;20287;-61
2023/12/18 11:55:17;;;;;;;11.35;9.13;;;;;;;;;;5090029;28;20224;-61
2023/12/18 11:57:43;;;;;;;12.80;8.77;;;;;;;;;;5088220;28;20664;-61
2023/12/18 12:00:11;;;;;;;12.68;8.13;;;;;;;;;;5084726;28;20276;-61
2023/12/18 12:02:39;;;;;;;12.27;8.32;;;;;;;;;;5084661;28;20207;-61
2023/12/18 12:05:06;;;;;;;12.80;8.32;;;;;;;;;;5084624;28;20278;-61
2023/12/18 12:07:33;;;;;;;10.00;7.55;;;;;;;;;;5088033;28;20765;-61
2023/12/18 12:09:59;;;;;;;10.00;8.32;;;;;;;;;;5089661;28;20226;-61
2023/12/18 12:12:25;;;;;;;13.93;8.25;;;;;;;;;;5085133;28;20287;-61
2023/12/18 12:14:52;;;;;;;15.07;8.00;;;;;;;;;;5084670;28;20220;-61
2023/12/18 12:17:20;;;;;;;10.27;7.95;;;;;;;;;;5083707;28;20204;-61
2023/12/18 12:19:47;;;;;;;9.80;7.60;;;;;;;;;;5086369;28;20734;-61
2023/12/18 12:22:13;;;;;;;9.55;8.20;;;;;;;;;;5089643;28;20665;-61
2023/12/18 12:24:40;;;;;;;11.88;8.18;;;;;;;;;;5086815;28;20200;-61
2023/12/18 12:27:06;;;;;;;10.90;7.90;;;;;;;;;;5083741;28;20215;-62
2023/12/18 12:29:33;;;;;;;13.48;7.70;;;;;;;;;;5085612;28;20196;-61
2023/12/18 12:31:59;;;;;;;11.65;8.68;;;;;;;;;;5084227;28;20240;-61
2023/12/18 12:34:26;;;;;;;14.20;9.30;;;;;;;;;;5080302;28;20223;-61
2023/12/18 12:36:53;;;;;;;15.85;8.93;;;;;;;;;;5088250;28;20675;-61
2023/12/18 12:39:19;;;;;;;15.73;8.95;;;;;;;;;;5083922;28;20611;-61
2023/12/18 12:41:46;;;;;;;21.30;8.43;;;;;;;;;;5084242;28;20283;-61
2023/12/18 12:44:12;;;;;;;14.18;9.13;;;;;;;;;;5083993;28;20287;-61
2023/12/18 12:46:39;;;;;;;16.08;8.40;;;;;;;;;;5086928;28;20640;-61
2023/12/18 12:49:09;;;;;;;19.02;7.28;;;;;;;;;;5088668;28;20204;-62
2023/12/18 12:51:37;;;;;;;13.25;7.90;;;;;;;;;;5080725;28;20196;-62
2023/12/18 12:54:06;;;;;;;13.30;9.88;;;;;;;;;;5088898;28;20203;-62
2023/12/18 12:56:33;;;;;;;132.52;16.00;;;;;;;;;;5084598;28;20696;-62
2023/12/18 12:58:59;;;;;;;15.10;8.00;;;;;;;;;;5083618;28;20609;-62
2023/12/18 13:01:26;;;;;;;10.48;7.22;;;;;;;;;;5083447;28;20580;-62
2023/12/18 13:03:52;;;;;;;10.65;7.00;;;;;;;;;;5085006;28;20250;-62
2023/12/18 13:06:20;;;;;;;11.98;6.80;;;;;;;;;;5088591;28;20219;-62
2023/12/18 13:08:46;;;;;;;14.30;7.10;;;;;;;;;;5086203;28;20638;-62
2023/12/18 13:11:15;;;;;;;16.10;6.70;;;;;;;;;;5083609;28;20310;-62
2023/12/18 13:13:41;;;;;;;8.82;6.45;;;;;;;;;;5083408;28;20204;-62
2023/12/18 13:16:07;;;;;;;14.05;6.50;;;;;;;;;;5083206;28;20221;-62
2023/12/18 13:18:34;;;;;;;19.50;6.82;;;;;;;;;;5088082;28;20222;-62
2023/12/18 13:21:01;;;;;;;10.02;6.25;;;;;;;;;;5087852;28;20242;-62
2023/12/18 13:23:27;;;;;;;9.65;5.80;;;;;;;;;;5079886;28;20657;-62
2023/12/18 13:25:54;;;;;;;14.40;6.13;;;;;;;;;;5086603;28;20219;-62
2023/12/18 13:28:21;;;;;;;10.30;5.63;;;;;;;;;;5083261;28;20199;-62
2023/12/18 13:30:47;;;;;;;7.72;5.45;;;;;;;;;;5083024;28;20199;-62
2023/12/18 13:33:15;;;;;;;7.97;5.57;;;;;;;;;;5083037;28;20665;-62
2023/12/18 13:35:42;;;;;;;7.88;5.70;;;;;;;;;;5086623;28;20319;-61
2023/12/18 13:38:08;;;;;;;7.82;5.55;;;;;;;;;;5088146;28;20627;-62
2023/12/18 13:40:34;;;;;;;9.95;6.18;;;;;;;;;;5083651;28;20545;-61
2023/12/18 13:43:00;;;;;;;11.40;7.25;;;;;;;;;;5083188;28;20676;-61
2023/12/18 13:45:28;;;;;;;8.27;5.22;;;;;;;;;;5082932;28;20703;-61
2023/12/18 13:47:54;;;;;;;10.38;6.00;;;;;;;;;;5084789;28;20764;-61
2023/12/18 13:50:20;;;;;;;6.10;5.50;;;;;;;;;;5087997;28;20208;-61
2023/12/18 13:52:48;;;;;;;9.77;6.10;;;;;;;;;;5085218;28;20223;-61
2023/12/18 13:55:14;;;;;;;12.73;6.47;;;;;;;;;;5083010;28;20226;-61
2023/12/18 13:57:40;;;;;;;9.43;6.38;;;;;;;;;;5083130;28;20265;-61
2023/12/18 14:00:08;;;;;;;6.93;5.95;;;;;;;;;;5083078;28;20205;-61
2023/12/18 14:02:36;;;;;;;9.57;5.60;;;;;;;;;;5079595;28;20201;-61
2023/12/18 14:05:02;;;;;;;9.55;5.78;;;;;;;;;;5087263;28;20301;-61
2023/12/18 14:07:29;;;;;;;8.18;5.80;;;;;;;;;;5082731;28;20218;-61
2023/12/18 14:09:55;;;;;;;7.85;5.82;;;;;;;;;;5082855;28;20199;-61
2023/12/18 14:12:21;;;;;;;7.28;5.57;;;;;;;;;;5082691;28;20200;-61
2023/12/18 14:14:48;;;;;;;6.53;5.57;;;;;;;;;;5085935;28;20224;-61
2023/12/18 14:17:14;;;;;;;8.57;5.70;;;;;;;;;;5087953;28;20200;-61
2023/12/18 14:19:41;;;;;;;7.88;5.82;;;;;;;;;;5083815;28;20237;-61
2023/12/18 14:22:09;;;;;;;8.85;6.15;;;;;;;;;;5082881;28;20199;-61